Cementos Cantabrico — EHCV — position and weather

sailwx.info

Track history (hours):
 
Tides and Currents Weather Stations Pressure Air Temp Water Temp Dewpoint Dewpoint Depression Visibility Wind Speed Wind Dir Waves Ship Positions

Cementos Cantabrico

Last reported at 2018-Jun-19 00:59 UTC. Time now 2018-Jun-19 01:15 UTC.
Position N 43°23' W 003°07'.

Length 118 m; draft 4.4 m.

Type: Cargo ship. MMSI: 224750000.

Date/timePositionNaut miles runAvg speedWind from/ knotsBaromVisibWave heightAir tempDewpointWater temp
2018-Jun-19 00:59N 43°23' W 003°07'0 0.0
2018-Jun-19 00:29N 43°23' W 003°07'0 0.0
2018-Jun-18 23:59N 43°23' W 003°07'0 0.0
2018-Jun-18 23:29N 43°23' W 003°07'0 0.0
2018-Jun-18 22:59N 43°23' W 003°07'0 0.0
2018-Jun-18 22:29N 43°23' W 003°07'0 0.0
2018-Jun-18 21:59N 43°23' W 003°07'0 0.0
2018-Jun-18 21:29N 43°23' W 003°07'0 0.0
2018-Jun-18 20:59N 43°23' W 003°07'0 0.0
2018-Jun-18 20:29N 43°23' W 003°07'0 0.0
2018-Jun-18 19:59N 43°23' W 003°07'0 0.0
2018-Jun-18 19:29N 43°23' W 003°07'0 0.0
2018-Jun-18 18:59N 43°23' W 003°07'0 0.0
2018-Jun-18 18:29N 43°23' W 003°07'0 0.0
2018-Jun-18 17:59N 43°23' W 003°07'0 0.0
2018-Jun-18 17:29N 43°23' W 003°07'0 0.0
2018-Jun-18 16:59N 43°23' W 003°07'0 0.0
2018-Jun-18 16:29N 43°23' W 003°07'0 0.0
2018-Jun-18 15:59N 43°23' W 003°07'0 0.0
2018-Jun-18 15:29N 43°23' W 003°07'0 0.0
2018-Jun-18 14:59N 43°23' W 003°07'0 0.0
2018-Jun-18 14:29N 43°23' W 003°07'0 0.1
2018-Jun-18 13:59N 43°23' W 003°07'0 0.0
2018-Jun-18 13:29N 43°23' W 003°07'0 0.0
2018-Jun-18 12:59N 43°23' W 003°07'0 0.0
2018-Jun-18 12:29N 43°23' W 003°07'0 0.0
2018-Jun-18 11:59N 43°23' W 003°07'0 0.0
2018-Jun-18 11:23N 43°23' W 003°07'0 0.0
2018-Jun-18 10:59N 43°23' W 003°07'0 0.0
2018-Jun-18 10:29N 43°23' W 003°07'0 0.0
2018-Jun-18 09:59N 43°23' W 003°07'0 0.0
2018-Jun-18 09:29N 43°23' W 003°07'0 0.0
2018-Jun-18 08:59N 43°23' W 003°07'0 0.1
2018-Jun-18 08:30N 43°23' W 003°08'3 6.7
2018-Jun-18 08:01N 43°26' W 003°07'713.9
2018-Jun-18 07:30N 43°33' W 003°11'713.5
2018-Jun-18 07:00N 43°39' W 003°15'713.5
2018-Jun-18 06:30N 43°45' W 003°19'35713.0
2018-Jun-17 03:02N 49°15' W 006°39'20911.6
2018-Jun-16 09:04N 52°38' W 005°24'110.2
2018-Jun-16 08:58N 52°39' W 005°23'7611.9
2018-Jun-16 02:36N 53°33' W 003°55'214.7
2018-Jun-16 02:30N 53°33' W 003°53'714.4
2018-Jun-16 01:59N 53°33' W 003°40'714.3
2018-Jun-16 01:30N 53°33' W 003°29'714.0
2018-Jun-16 01:00N 53°32' W 003°17'611.1
2018-Jun-16 00:30N 53°32' W 003°08'611.9
2018-Jun-16 00:00N 53°27' W 003°02'4 8.7
2018-Jun-15 23:30N 53°23' W 002°59'4 7.3
2018-Jun-15 23:00N 53°19' W 002°57'0 1.0
2018-Jun-15 22:30N 53°19' W 002°56'2 4.7
2018-Jun-15 22:00N 53°17' W 002°53'2 4.8
2018-Jun-15 21:30N 53°17' W 002°49'3 5.5
2018-Jun-15 20:59N 53°19' W 002°45'2 3.2
2018-Jun-15 20:27N 53°20' W 002°45'0 0.1
2018-Jun-15 19:48N 53°20' W 002°45'0 0.0
2018-Jun-15 19:24N 53°20' W 002°45'0 0.0
2018-Jun-15 19:00N 53°20' W 002°45'0 0.0
2018-Jun-15 18:30N 53°20' W 002°45'0 0.0
2018-Jun-15 17:57N 53°20' W 002°45'0 0.0
2018-Jun-15 17:30N 53°20' W 002°45'0 0.0
2018-Jun-15 17:00N 53°20' W 002°45'0 0.0
2018-Jun-15 16:30N 53°20' W 002°45'0 0.0
2018-Jun-15 16:00N 53°20' W 002°45'0 0.0
2018-Jun-15 15:30N 53°20' W 002°45'0 0.0
2018-Jun-15 15:00N 53°20' W 002°45'0 0.0
2018-Jun-15 14:30N 53°20' W 002°45'0 0.0
2018-Jun-15 13:57N 53°20' W 002°45'0 0.0
2018-Jun-15 13:30N 53°20' W 002°45'0 0.0
2018-Jun-15 13:00N 53°20' W 002°45'0 0.0
2018-Jun-15 12:27N 53°20' W 002°45'0 0.0
2018-Jun-15 11:56N 53°20' W 002°45'0 0.0
2018-Jun-15 11:29N 53°20' W 002°45'0 0.0
2018-Jun-15 10:59N 53°20' W 002°45'0 0.0
2018-Jun-15 10:20N 53°20' W 002°45'0 0.0
2018-Jun-15 09:56N 53°20' W 002°45'0 0.0
2018-Jun-15 09:26N 53°20' W 002°45'0 0.0
2018-Jun-15 08:59N 53°20' W 002°45'0 0.0
2018-Jun-15 08:26N 53°20' W 002°45'0 0.0
2018-Jun-15 07:59N 53°20' W 002°45'0 0.0
2018-Jun-15 07:26N 53°20' W 002°45'0 0.0
2018-Jun-15 06:59N 53°20' W 002°45'0 0.0
2018-Jun-15 06:23N 53°20' W 002°45'0 0.0
2018-Jun-15 05:59N 53°20' W 002°45'0 0.0
2018-Jun-15 05:29N 53°20' W 002°45'0 0.0
2018-Jun-15 04:59N 53°20' W 002°45'0 0.0
2018-Jun-15 04:29N 53°20' W 002°45'0 0.0
2018-Jun-15 03:56N 53°20' W 002°45'0 0.0
2018-Jun-15 03:26N 53°20' W 002°45'0 0.0
2018-Jun-15 02:56N 53°20' W 002°45'0 0.0
2018-Jun-15 02:29N 53°20' W 002°45'0 0.0
2018-Jun-15 01:59N 53°20' W 002°45'0 0.0
2018-Jun-15 01:29N 53°20' W 002°45'0 0.0
2018-Jun-15 00:59N 53°20' W 002°45'0 0.0
2018-Jun-15 00:29N 53°20' W 002°45'0 0.0
2018-Jun-14 23:59N 53°20' W 002°45'0 0.0
2018-Jun-14 23:29N 53°20' W 002°45'0 0.0
2018-Jun-14 22:59N 53°20' W 002°45'0 0.0
2018-Jun-14 22:29N 53°20' W 002°45'0 0.0
2018-Jun-14 21:59N 53°20' W 002°45'0 0.0
2018-Jun-14 21:29N 53°20' W 002°45'0 0.0
2018-Jun-14 20:56N 53°20' W 002°45'0 0.0
2018-Jun-14 20:29N 53°20' W 002°45'0 0.0
2018-Jun-14 19:59N 53°20' W 002°45'0 0.0
2018-Jun-14 19:29N 53°20' W 002°45'0 0.0
2018-Jun-14 18:59N 53°20' W 002°45'0 0.0
2018-Jun-14 18:29N 53°20' W 002°45'0 0.0
2018-Jun-14 17:56N 53°20' W 002°45'0 0.0
2018-Jun-14 17:29N 53°20' W 002°45'0 0.0
2018-Jun-14 16:59N 53°20' W 002°45'0 0.0
2018-Jun-14 16:29N 53°20' W 002°45'0 0.0
2018-Jun-14 15:59N 53°20' W 002°45'0 0.0
2018-Jun-14 15:29N 53°20' W 002°45'0 0.0
2018-Jun-14 14:59N 53°20' W 002°45'0 0.0
2018-Jun-14 14:29N 53°20' W 002°45'0 0.0
2018-Jun-14 13:59N 53°20' W 002°45'0 0.0
2018-Jun-14 13:29N 53°20' W 002°45'0 0.0
2018-Jun-14 12:59N 53°20' W 002°45'0 0.0
2018-Jun-14 12:29N 53°20' W 002°45'0 0.0
2018-Jun-14 11:56N 53°20' W 002°45'0 0.0
2018-Jun-14 11:29N 53°20' W 002°45'0 0.0
2018-Jun-14 10:59N 53°20' W 002°45'0 0.0
2018-Jun-14 10:26N 53°20' W 002°45'0 0.0
2018-Jun-14 09:56N 53°20' W 002°45'0 0.0
2018-Jun-14 09:29N 53°20' W 002°45'0 0.0
2018-Jun-14 08:59N 53°20' W 002°45'0 0.0
2018-Jun-14 08:29N 53°20' W 002°45'0 0.0
2018-Jun-14 07:59N 53°20' W 002°45'0 0.0
2018-Jun-14 07:26N 53°20' W 002°45'0 0.0
2018-Jun-14 06:59N 53°20' W 002°45'0 0.0
2018-Jun-14 06:29N 53°20' W 002°45'0 0.0
2018-Jun-14 05:59N 53°20' W 002°45'0 0.0
2018-Jun-14 05:29N 53°20' W 002°45'0 0.0
2018-Jun-14 04:59N 53°20' W 002°45'0 0.0
2018-Jun-14 04:29N 53°20' W 002°45'0 0.0
2018-Jun-14 03:59N 53°20' W 002°45'0 0.0
2018-Jun-14 03:29N 53°20' W 002°45'0 0.2
2018-Jun-14 02:59N 53°20' W 002°45'1 2.6
2018-Jun-14 02:30N 53°19' W 002°45'2 4.7
2018-Jun-14 02:00N 53°18' W 002°48'2 4.9
2018-Jun-14 01:30N 53°17' W 002°52'2 4.7
2018-Jun-14 01:00N 53°18' W 002°56'1 2.3
2018-Jun-14 00:29N 53°19' W 002°57'1 2.2
2018-Jun-14 00:00N 53°20' W 002°58'2 3.6
2018-Jun-13 23:30N 53°22' W 002°59'4 7.8
2018-Jun-13 23:01N 53°26' W 003°01'611.7
2018-Jun-13 22:30N 53°31' W 003°06'4 8.1
2018-Jun-13 22:00N 53°31' W 003°13'4 8.6
2018-Jun-13 21:29N 53°31' W 003°21'3 6.3
2018-Jun-13 21:00N 53°31' W 003°26'2 3.1
2018-Jun-13 20:30N 53°29' W 003°27'0 0.0
2018-Jun-13 20:00N 53°29' W 003°27'0 0.0
2018-Jun-13 19:30N 53°29' W 003°27'0 0.0
2018-Jun-13 19:00N 53°29' W 003°27'0 0.0
2018-Jun-13 18:27N 53°29' W 003°27'0 0.1
2018-Jun-13 17:57N 53°29' W 003°27'0 0.0
2018-Jun-13 17:27N 53°29' W 003°27'2 3.6
2018-Jun-13 17:00N 53°30' W 003°29'612.0
2018-Jun-13 16:30N 53°31' W 003°39'611.9
2018-Jun-13 16:00N 53°31' W 003°49'13911.4
2018-Jun-13 03:53N 51°34' W 005°52'612.9
2018-Jun-13 03:25N 51°29' W 005°55'47510.3
2018-Jun-11 05:28N 43°34' W 005°42'0 0.0
2018-Jun-11 04:58N 43°34' W 005°42'0 0.0
2018-Jun-11 03:58N 43°34' W 005°42'0 0.0
2018-Jun-11 03:28N 43°34' W 005°42'0 0.0
2018-Jun-10 12:22N 43°34' W 005°42'0 0.0
2018-Jun-10 04:48N 43°34' W 005°42'1 2.4
2018-Jun-10 04:30N 43°34' W 005°41'5 9.0
2018-Jun-10 03:58N 43°38' W 005°44'612.6
2018-Jun-10 03:29N 43°42' W 005°50'612.8
2018-Jun-10 03:00N 43°42' W 005°59'  
Track history (hours):
 
Tides and Currents Weather Stations Pressure Air Temp Water Temp Dewpoint Dewpoint Depression Visibility Wind Speed Wind Dir Waves Ship Positions

Cementos Cantabrico

Last reported at 2018-Jun-19 00:59 UTC. Time now 2018-Jun-19 01:15 UTC.
Position N 43°23' W 003°07'.

Length 118 m; draft 4.4 m.

Type: Cargo ship. MMSI: 224750000.

Date/timePositionNaut miles runAvg speedWind from/ knotsBaromVisibWave heightAir tempDewpointWater temp
2018-Jun-19 00:59N 43°23' W 003°07'0 0.0
2018-Jun-19 00:29N 43°23' W 003°07'0 0.0
2018-Jun-18 23:59N 43°23' W 003°07'0 0.0
2018-Jun-18 23:29N 43°23' W 003°07'0 0.0
2018-Jun-18 22:59N 43°23' W 003°07'0 0.0
2018-Jun-18 22:29N 43°23' W 003°07'0 0.0
2018-Jun-18 21:59N 43°23' W 003°07'0 0.0
2018-Jun-18 21:29N 43°23' W 003°07'0 0.0
2018-Jun-18 20:59N 43°23' W 003°07'0 0.0
2018-Jun-18 20:29N 43°23' W 003°07'0 0.0
2018-Jun-18 19:59N 43°23' W 003°07'0 0.0
2018-Jun-18 19:29N 43°23' W 003°07'0 0.0
2018-Jun-18 18:59N 43°23' W 003°07'0 0.0
2018-Jun-18 18:29N 43°23' W 003°07'0 0.0
2018-Jun-18 17:59N 43°23' W 003°07'0 0.0
2018-Jun-18 17:29N 43°23' W 003°07'0 0.0
2018-Jun-18 16:59N 43°23' W 003°07'0 0.0
2018-Jun-18 16:29N 43°23' W 003°07'0 0.0
2018-Jun-18 15:59N 43°23' W 003°07'0 0.0
2018-Jun-18 15:29N 43°23' W 003°07'0 0.0
2018-Jun-18 14:59N 43°23' W 003°07'0 0.0
2018-Jun-18 14:29N 43°23' W 003°07'0 0.1
2018-Jun-18 13:59N 43°23' W 003°07'0 0.0
2018-Jun-18 13:29N 43°23' W 003°07'0 0.0
2018-Jun-18 12:59N 43°23' W 003°07'0 0.0
2018-Jun-18 12:29N 43°23' W 003°07'0 0.0
2018-Jun-18 11:59N 43°23' W 003°07'0 0.0
2018-Jun-18 11:23N 43°23' W 003°07'0 0.0
2018-Jun-18 10:59N 43°23' W 003°07'0 0.0
2018-Jun-18 10:29N 43°23' W 003°07'0 0.0
2018-Jun-18 09:59N 43°23' W 003°07'0 0.0
2018-Jun-18 09:29N 43°23' W 003°07'0 0.0
2018-Jun-18 08:59N 43°23' W 003°07'0 0.1
2018-Jun-18 08:30N 43°23' W 003°08'3 6.7
2018-Jun-18 08:01N 43°26' W 003°07'713.9
2018-Jun-18 07:30N 43°33' W 003°11'713.5
2018-Jun-18 07:00N 43°39' W 003°15'713.5
2018-Jun-18 06:30N 43°45' W 003°19'35713.0
2018-Jun-17 03:02N 49°15' W 006°39'20911.6
2018-Jun-16 09:04N 52°38' W 005°24'110.2
2018-Jun-16 08:58N 52°39' W 005°23'7611.9
2018-Jun-16 02:36N 53°33' W 003°55'214.7
2018-Jun-16 02:30N 53°33' W 003°53'714.4
2018-Jun-16 01:59N 53°33' W 003°40'714.3
2018-Jun-16 01:30N 53°33' W 003°29'714.0
2018-Jun-16 01:00N 53°32' W 003°17'611.1
2018-Jun-16 00:30N 53°32' W 003°08'611.9
2018-Jun-16 00:00N 53°27' W 003°02'4 8.7
2018-Jun-15 23:30N 53°23' W 002°59'4 7.3
2018-Jun-15 23:00N 53°19' W 002°57'0 1.0
2018-Jun-15 22:30N 53°19' W 002°56'2 4.7
2018-Jun-15 22:00N 53°17' W 002°53'2 4.8
2018-Jun-15 21:30N 53°17' W 002°49'3 5.5
2018-Jun-15 20:59N 53°19' W 002°45'2 3.2
2018-Jun-15 20:27N 53°20' W 002°45'0 0.1
2018-Jun-15 19:48N 53°20' W 002°45'0 0.0
2018-Jun-15 19:24N 53°20' W 002°45'0 0.0
2018-Jun-15 19:00N 53°20' W 002°45'0 0.0
2018-Jun-15 18:30N 53°20' W 002°45'0 0.0
2018-Jun-15 17:57N 53°20' W 002°45'0 0.0
2018-Jun-15 17:30N 53°20' W 002°45'0 0.0
2018-Jun-15 17:00N 53°20' W 002°45'0 0.0
2018-Jun-15 16:30N 53°20' W 002°45'0 0.0
2018-Jun-15 16:00N 53°20' W 002°45'0 0.0
2018-Jun-15 15:30N 53°20' W 002°45'0 0.0
2018-Jun-15 15:00N 53°20' W 002°45'0 0.0
2018-Jun-15 14:30N 53°20' W 002°45'0 0.0
2018-Jun-15 13:57N 53°20' W 002°45'0 0.0
2018-Jun-15 13:30N 53°20' W 002°45'0 0.0
2018-Jun-15 13:00N 53°20' W 002°45'0 0.0
2018-Jun-15 12:27N 53°20' W 002°45'0 0.0
2018-Jun-15 11:56N 53°20' W 002°45'0 0.0
2018-Jun-15 11:29N 53°20' W 002°45'0 0.0
2018-Jun-15 10:59N 53°20' W 002°45'0 0.0
2018-Jun-15 10:20N 53°20' W 002°45'0 0.0
2018-Jun-15 09:56N 53°20' W 002°45'0 0.0
2018-Jun-15 09:26N 53°20' W 002°45'0 0.0
2018-Jun-15 08:59N 53°20' W 002°45'0 0.0
2018-Jun-15 08:26N 53°20' W 002°45'0 0.0
2018-Jun-15 07:59N 53°20' W 002°45'0 0.0
2018-Jun-15 07:26N 53°20' W 002°45'0 0.0
2018-Jun-15 06:59N 53°20' W 002°45'0 0.0
2018-Jun-15 06:23N 53°20' W 002°45'0 0.0
2018-Jun-15 05:59N 53°20' W 002°45'0 0.0
2018-Jun-15 05:29N 53°20' W 002°45'0 0.0
2018-Jun-15 04:59N 53°20' W 002°45'0 0.0
2018-Jun-15 04:29N 53°20' W 002°45'0 0.0
2018-Jun-15 03:56N 53°20' W 002°45'0 0.0
2018-Jun-15 03:26N 53°20' W 002°45'0 0.0
2018-Jun-15 02:56N 53°20' W 002°45'0 0.0
2018-Jun-15 02:29N 53°20' W 002°45'0 0.0
2018-Jun-15 01:59N 53°20' W 002°45'0 0.0
2018-Jun-15 01:29N 53°20' W 002°45'0 0.0
2018-Jun-15 00:59N 53°20' W 002°45'0 0.0
2018-Jun-15 00:29N 53°20' W 002°45'0 0.0
2018-Jun-14 23:59N 53°20' W 002°45'0 0.0
2018-Jun-14 23:29N 53°20' W 002°45'0 0.0
2018-Jun-14 22:59N 53°20' W 002°45'0 0.0
2018-Jun-14 22:29N 53°20' W 002°45'0 0.0
2018-Jun-14 21:59N 53°20' W 002°45'0 0.0
2018-Jun-14 21:29N 53°20' W 002°45'0 0.0
2018-Jun-14 20:56N 53°20' W 002°45'0 0.0
2018-Jun-14 20:29N 53°20' W 002°45'0 0.0
2018-Jun-14 19:59N 53°20' W 002°45'0 0.0
2018-Jun-14 19:29N 53°20' W 002°45'0 0.0
2018-Jun-14 18:59N 53°20' W 002°45'0 0.0
2018-Jun-14 18:29N 53°20' W 002°45'0 0.0
2018-Jun-14 17:56N 53°20' W 002°45'0 0.0
2018-Jun-14 17:29N 53°20' W 002°45'0 0.0
2018-Jun-14 16:59N 53°20' W 002°45'0 0.0
2018-Jun-14 16:29N 53°20' W 002°45'0 0.0
2018-Jun-14 15:59N 53°20' W 002°45'0 0.0
2018-Jun-14 15:29N 53°20' W 002°45'0 0.0
2018-Jun-14 14:59N 53°20' W 002°45'0 0.0
2018-Jun-14 14:29N 53°20' W 002°45'0 0.0
2018-Jun-14 13:59N 53°20' W 002°45'0 0.0
2018-Jun-14 13:29N 53°20' W 002°45'0 0.0
2018-Jun-14 12:59N 53°20' W 002°45'0 0.0
2018-Jun-14 12:29N 53°20' W 002°45'0 0.0
2018-Jun-14 11:56N 53°20' W 002°45'0 0.0
2018-Jun-14 11:29N 53°20' W 002°45'0 0.0
2018-Jun-14 10:59N 53°20' W 002°45'0 0.0
2018-Jun-14 10:26N 53°20' W 002°45'0 0.0
2018-Jun-14 09:56N 53°20' W 002°45'0 0.0
2018-Jun-14 09:29N 53°20' W 002°45'0 0.0
2018-Jun-14 08:59N 53°20' W 002°45'0 0.0
2018-Jun-14 08:29N 53°20' W 002°45'0 0.0
2018-Jun-14 07:59N 53°20' W 002°45'0 0.0
2018-Jun-14 07:26N 53°20' W 002°45'0 0.0
2018-Jun-14 06:59N 53°20' W 002°45'0 0.0
2018-Jun-14 06:29N 53°20' W 002°45'0 0.0
2018-Jun-14 05:59N 53°20' W 002°45'0 0.0
2018-Jun-14 05:29N 53°20' W 002°45'0 0.0
2018-Jun-14 04:59N 53°20' W 002°45'0 0.0
2018-Jun-14 04:29N 53°20' W 002°45'0 0.0
2018-Jun-14 03:59N 53°20' W 002°45'0 0.0
2018-Jun-14 03:29N 53°20' W 002°45'0 0.2
2018-Jun-14 02:59N 53°20' W 002°45'1 2.6
2018-Jun-14 02:30N 53°19' W 002°45'2 4.7
2018-Jun-14 02:00N 53°18' W 002°48'2 4.9
2018-Jun-14 01:30N 53°17' W 002°52'2 4.7
2018-Jun-14 01:00N 53°18' W 002°56'1 2.3
2018-Jun-14 00:29N 53°19' W 002°57'1 2.2
2018-Jun-14 00:00N 53°20' W 002°58'2 3.6
2018-Jun-13 23:30N 53°22' W 002°59'4 7.8
2018-Jun-13 23:01N 53°26' W 003°01'611.7
2018-Jun-13 22:30N 53°31' W 003°06'4 8.1
2018-Jun-13 22:00N 53°31' W 003°13'4 8.6
2018-Jun-13 21:29N 53°31' W 003°21'3 6.3
2018-Jun-13 21:00N 53°31' W 003°26'2 3.1
2018-Jun-13 20:30N 53°29' W 003°27'0 0.0
2018-Jun-13 20:00N 53°29' W 003°27'0 0.0
2018-Jun-13 19:30N 53°29' W 003°27'0 0.0
2018-Jun-13 19:00N 53°29' W 003°27'0 0.0
2018-Jun-13 18:27N 53°29' W 003°27'0 0.1
2018-Jun-13 17:57N 53°29' W 003°27'0 0.0
2018-Jun-13 17:27N 53°29' W 003°27'2 3.6
2018-Jun-13 17:00N 53°30' W 003°29'612.0
2018-Jun-13 16:30N 53°31' W 003°39'611.9
2018-Jun-13 16:00N 53°31' W 003°49'13911.4
2018-Jun-13 03:53N 51°34' W 005°52'612.9
2018-Jun-13 03:25N 51°29' W 005°55'47510.3
2018-Jun-11 05:28N 43°34' W 005°42'0 0.0
2018-Jun-11 04:58N 43°34' W 005°42'0 0.0
2018-Jun-11 03:58N 43°34' W 005°42'0 0.0
2018-Jun-11 03:28N 43°34' W 005°42'0 0.0
2018-Jun-10 12:22N 43°34' W 005°42'0 0.0
2018-Jun-10 04:48N 43°34' W 005°42'1 2.4
2018-Jun-10 04:30N 43°34' W 005°41'5 9.0
2018-Jun-10 03:58N 43°38' W 005°44'612.6
2018-Jun-10 03:29N 43°42' W 005°50'612.8
2018-Jun-10 03:00N 43°42' W 005°59'  

Dump ship's entire track history